M/T Narcea — CQMS — position and weather

sailwx.info

Track history (hours):
 
Tides and Currents Weather Stations Pressure Air Temp Water Temp Dewpoint Dewpoint Depression Visibility Wind Speed Wind Dir Waves Ship Positions

M/T Narcea

Last reported at 2018-Feb-20 16:32 UTC. Time now 2018-Feb-21 01:21 UTC.
Position N 43°37' W 005°58'.

Length 100 m; draft 5.2 m.

Type: Tanker. MMSI: 255803560.

Date/timePositionNaut miles runAvg speedWind from/ knotsBaromVisibWave heightAir tempDewpointWater temp
2018-Feb-20 16:32N 43°37' W 005°58'0 6.4
2018-Feb-20 16:29N 43°37' W 005°58'2 3.3
2018-Feb-20 16:00N 43°39' W 005°59'4 8.5
2018-Feb-20 15:30N 43°40' W 006°05'510.7
2018-Feb-20 15:00N 43°40' W 006°12'291 7.8
2018-Feb-19 01:38N 39°42' W 009°56'310.5
2018-Feb-19 01:19N 39°38' W 009°56'310.4
2018-Feb-19 01:00N 39°35' W 009°56'510.3
2018-Feb-19 00:30N 39°30' W 009°56'5 9.9
2018-Feb-19 00:00N 39°25' W 009°56'510.2
2018-Feb-18 23:28N 39°19' W 009°56'510.2
2018-Feb-18 23:00N 39°15' W 009°56'510.1
2018-Feb-18 22:30N 39°10' W 009°56'5 9.9
2018-Feb-18 22:00N 39°05' W 009°56'5 9.9
2018-Feb-18 21:30N 38°60' W 009°56'5 9.9
2018-Feb-18 21:00N 38°55' W 009°56'5 9.6
2018-Feb-18 20:30N 38°50' W 009°56'5 9.8
2018-Feb-18 20:00N 38°45' W 009°56'5 9.8
2018-Feb-18 19:30N 38°40' W 009°55'5 9.9
2018-Feb-18 19:00N 38°36' W 009°54'5 9.9
2018-Feb-18 18:30N 38°31' W 009°52'5 9.6
2018-Feb-18 18:00N 38°26' W 009°51'5 9.8
2018-Feb-18 17:30N 38°21' W 009°50'5 9.7
2018-Feb-18 17:00N 38°16' W 009°48'5 9.7
2018-Feb-18 16:30N 38°12' W 009°47'5 9.5
2018-Feb-18 16:00N 38°07' W 009°46'5 9.8
2018-Feb-18 15:30N 38°02' W 009°44'510.2
2018-Feb-18 15:00N 37°57' W 009°43'510.1
2018-Feb-18 14:28N 37°52' W 009°41'5 9.9
2018-Feb-18 14:00N 37°48' W 009°40'5 9.8
2018-Feb-18 13:30N 37°43' W 009°38'5 9.9
2018-Feb-18 13:00N 37°38' W 009°37'1110.0
2018-Feb-18 11:56N 37°28' W 009°33'410.3
2018-Feb-18 11:30N 37°23' W 009°32'910.1
2018-Feb-18 10:35N 37°14' W 009°30'110.0
2018-Feb-18 10:28N 37°13' W 009°30'1310.1
2018-Feb-18 09:13N 37°01' W 009°26'2 9.9
2018-Feb-18 09:00N 36°59' W 009°26'5 9.7
2018-Feb-18 08:30N 36°54' W 009°24'401 9.7
2018-Feb-16 15:21N 37°14' W 001°03'511.8
2018-Feb-16 14:54N 37°18' W 000°58'511.7
2018-Feb-16 14:30N 37°21' W 000°53'611.4
2018-Feb-16 14:00N 37°25' W 000°48'611.2
2018-Feb-16 13:30N 37°28' W 000°43'611.0
2018-Feb-16 13:00N 37°32' W 000°38'510.7
2018-Feb-16 12:30N 37°36' W 000°33'510.6
2018-Feb-16 12:00N 37°40' W 000°29'710.4
2018-Feb-16 11:22N 37°45' W 000°24'510.5
2018-Feb-16 10:55N 37°49' W 000°21'510.5
2018-Feb-16 10:27N 37°54' W 000°17'510.6
2018-Feb-16 09:56N 37°58' W 000°14'510.7
2018-Feb-16 09:30N 38°02' W 000°10'1010.9
2018-Feb-16 08:34N 38°11' W 000°04'311.0
2018-Feb-16 08:19N 38°13' W 000°02'36611.2
2018-Feb-14 23:33N 43°04' E 004°51'111.3
2018-Feb-14 23:30N 43°04' E 004°51'611.3
2018-Feb-14 23:00N 43°09' E 004°56'710.3
2018-Feb-14 22:20N 43°15' E 005°00'411.2
2018-Feb-14 22:00N 43°18' E 004°59'5 9.9
2018-Feb-14 21:30N 43°23' E 004°56'3 2.6
2018-Feb-14 20:16N 43°26' E 004°53'0 0.0
2018-Feb-14 20:00N 43°26' E 004°53'0 0.0
2018-Feb-14 19:30N 43°26' E 004°53'0 0.0
2018-Feb-14 19:00N 43°26' E 004°53'0 0.0
2018-Feb-14 18:30N 43°26' E 004°53'0 0.0
2018-Feb-14 18:00N 43°26' E 004°53'0 0.0
2018-Feb-14 17:30N 43°26' E 004°53'0 0.0
2018-Feb-14 17:00N 43°26' E 004°53'0 0.0
2018-Feb-14 16:30N 43°26' E 004°53'0 0.0
2018-Feb-14 16:00N 43°26' E 004°53'0 0.0
2018-Feb-14 15:31N 43°26' E 004°53'0 0.0
2018-Feb-14 15:00N 43°26' E 004°53'0 0.0
2018-Feb-14 14:30N 43°26' E 004°53'0 0.0
2018-Feb-14 14:00N 43°26' E 004°53'0 0.0
2018-Feb-14 13:30N 43°26' E 004°53'0 0.0
2018-Feb-14 13:00N 43°26' E 004°53'0 0.0
2018-Feb-14 12:28N 43°26' E 004°53'0 0.0
2018-Feb-14 12:00N 43°26' E 004°53'0 0.0
2018-Feb-14 11:30N 43°26' E 004°53'0 0.0
2018-Feb-14 11:00N 43°26' E 004°53'0 0.0
2018-Feb-14 10:30N 43°26' E 004°53'0 0.0
2018-Feb-14 10:00N 43°26' E 004°53'0 0.0
2018-Feb-14 09:30N 43°26' E 004°53'0 0.0
2018-Feb-14 09:00N 43°26' E 004°53'0 0.0
2018-Feb-14 08:30N 43°26' E 004°53'0 0.0
2018-Feb-14 08:00N 43°26' E 004°53'0 0.0
2018-Feb-14 07:30N 43°26' E 004°53'0 0.0
2018-Feb-14 07:00N 43°26' E 004°53'0 0.0
2018-Feb-14 06:30N 43°26' E 004°53'0 0.0
2018-Feb-14 06:01N 43°26' E 004°53'0 0.0
2018-Feb-14 05:30N 43°26' E 004°53'0 0.0
2018-Feb-14 05:00N 43°26' E 004°53'0 0.0
2018-Feb-14 04:30N 43°26' E 004°53'0 0.0
2018-Feb-14 04:00N 43°26' E 004°53'0 0.0
2018-Feb-14 03:28N 43°26' E 004°53'0 0.0
2018-Feb-14 03:00N 43°26' E 004°53'0 0.0
2018-Feb-14 02:29N 43°26' E 004°53'0 0.0
2018-Feb-14 02:00N 43°26' E 004°53'0 0.0
2018-Feb-14 01:30N 43°26' E 004°53'0 0.0
2018-Feb-14 01:00N 43°26' E 004°53'0 0.0
2018-Feb-14 00:30N 43°26' E 004°53'0 0.0
2018-Feb-14 00:00N 43°26' E 004°53'0 0.0
2018-Feb-13 23:28N 43°26' E 004°53'0 0.0
2018-Feb-13 23:00N 43°26' E 004°53'0 0.0
2018-Feb-13 22:30N 43°26' E 004°53'0 0.0
2018-Feb-13 22:01N 43°26' E 004°53'0 0.0
2018-Feb-13 21:30N 43°26' E 004°53'0 0.0
2018-Feb-13 20:59N 43°26' E 004°53'0 0.0
2018-Feb-13 20:30N 43°26' E 004°53'1 1.3
2018-Feb-13 20:00N 43°25' E 004°53'4 8.9
2018-Feb-13 19:31N 43°22' E 004°57'5 9.8
2018-Feb-13 19:00N 43°17' E 005°00'510.4
2018-Feb-13 18:30N 43°12' E 005°02'41810.7
2018-Feb-12 03:35N 37°38' W 000°27'111.7
2018-Feb-12 03:30N 37°37' W 000°28'611.7
2018-Feb-12 03:00N 37°32' W 000°32'1111.4
2018-Feb-12 02:01N 37°25' W 000°43'010.9
2018-Feb-12 02:00N 37°25' W 000°43'611.1
2018-Feb-12 01:30N 37°21' W 000°48'611.1
2018-Feb-12 00:59N 37°17' W 000°54'510.9
2018-Feb-12 00:30N 37°14' W 000°59'21811.3
2018-Feb-11 05:12N 35°56' W 005°13'314.2
2018-Feb-11 05:00N 35°56' W 005°16'3 5.8
2018-Feb-11 04:30N 35°54' W 005°19'1 1.1
2018-Feb-11 04:01N 35°54' W 005°19'0 0.0
2018-Feb-11 03:30N 35°54' W 005°19'0 0.0
2018-Feb-11 03:00N 35°54' W 005°19'0 0.0
2018-Feb-11 02:30N 35°54' W 005°19'0 0.0
2018-Feb-11 02:00N 35°54' W 005°19'0 0.0
2018-Feb-11 01:30N 35°54' W 005°19'0 0.0
2018-Feb-11 01:00N 35°54' W 005°19'0 0.9
2018-Feb-11 00:30N 35°54' W 005°19'2 3.2
2018-Feb-11 00:00N 35°55' W 005°18'2 3.9
2018-Feb-10 23:30N 35°56' W 005°16'2 3.2
2018-Feb-10 23:00N 35°57' W 005°18'2 4.0
2018-Feb-10 22:30N 35°58' W 005°20'611.2
2018-Feb-10 22:00N 35°57' W 005°27'  
Track history (hours):
 
Tides and Currents Weather Stations Pressure Air Temp Water Temp Dewpoint Dewpoint Depression Visibility Wind Speed Wind Dir Waves Ship Positions

M/T Narcea

Last reported at 2018-Feb-20 16:32 UTC. Time now 2018-Feb-21 01:21 UTC.
Position N 43°37' W 005°58'.

Length 100 m; draft 5.2 m.

Type: Tanker. MMSI: 255803560.

Date/timePositionNaut miles runAvg speedWind from/ knotsBaromVisibWave heightAir tempDewpointWater temp
2018-Feb-20 16:32N 43°37' W 005°58'0 6.4
2018-Feb-20 16:29N 43°37' W 005°58'2 3.3
2018-Feb-20 16:00N 43°39' W 005°59'4 8.5
2018-Feb-20 15:30N 43°40' W 006°05'510.7
2018-Feb-20 15:00N 43°40' W 006°12'291 7.8
2018-Feb-19 01:38N 39°42' W 009°56'310.5
2018-Feb-19 01:19N 39°38' W 009°56'310.4
2018-Feb-19 01:00N 39°35' W 009°56'510.3
2018-Feb-19 00:30N 39°30' W 009°56'5 9.9
2018-Feb-19 00:00N 39°25' W 009°56'510.2
2018-Feb-18 23:28N 39°19' W 009°56'510.2
2018-Feb-18 23:00N 39°15' W 009°56'510.1
2018-Feb-18 22:30N 39°10' W 009°56'5 9.9
2018-Feb-18 22:00N 39°05' W 009°56'5 9.9
2018-Feb-18 21:30N 38°60' W 009°56'5 9.9
2018-Feb-18 21:00N 38°55' W 009°56'5 9.6
2018-Feb-18 20:30N 38°50' W 009°56'5 9.8
2018-Feb-18 20:00N 38°45' W 009°56'5 9.8
2018-Feb-18 19:30N 38°40' W 009°55'5 9.9
2018-Feb-18 19:00N 38°36' W 009°54'5 9.9
2018-Feb-18 18:30N 38°31' W 009°52'5 9.6
2018-Feb-18 18:00N 38°26' W 009°51'5 9.8
2018-Feb-18 17:30N 38°21' W 009°50'5 9.7
2018-Feb-18 17:00N 38°16' W 009°48'5 9.7
2018-Feb-18 16:30N 38°12' W 009°47'5 9.5
2018-Feb-18 16:00N 38°07' W 009°46'5 9.8
2018-Feb-18 15:30N 38°02' W 009°44'510.2
2018-Feb-18 15:00N 37°57' W 009°43'510.1
2018-Feb-18 14:28N 37°52' W 009°41'5 9.9
2018-Feb-18 14:00N 37°48' W 009°40'5 9.8
2018-Feb-18 13:30N 37°43' W 009°38'5 9.9
2018-Feb-18 13:00N 37°38' W 009°37'1110.0
2018-Feb-18 11:56N 37°28' W 009°33'410.3
2018-Feb-18 11:30N 37°23' W 009°32'910.1
2018-Feb-18 10:35N 37°14' W 009°30'110.0
2018-Feb-18 10:28N 37°13' W 009°30'1310.1
2018-Feb-18 09:13N 37°01' W 009°26'2 9.9
2018-Feb-18 09:00N 36°59' W 009°26'5 9.7
2018-Feb-18 08:30N 36°54' W 009°24'401 9.7
2018-Feb-16 15:21N 37°14' W 001°03'511.8
2018-Feb-16 14:54N 37°18' W 000°58'511.7
2018-Feb-16 14:30N 37°21' W 000°53'611.4
2018-Feb-16 14:00N 37°25' W 000°48'611.2
2018-Feb-16 13:30N 37°28' W 000°43'611.0
2018-Feb-16 13:00N 37°32' W 000°38'510.7
2018-Feb-16 12:30N 37°36' W 000°33'510.6
2018-Feb-16 12:00N 37°40' W 000°29'710.4
2018-Feb-16 11:22N 37°45' W 000°24'510.5
2018-Feb-16 10:55N 37°49' W 000°21'510.5
2018-Feb-16 10:27N 37°54' W 000°17'510.6
2018-Feb-16 09:56N 37°58' W 000°14'510.7
2018-Feb-16 09:30N 38°02' W 000°10'1010.9
2018-Feb-16 08:34N 38°11' W 000°04'311.0
2018-Feb-16 08:19N 38°13' W 000°02'36611.2
2018-Feb-14 23:33N 43°04' E 004°51'111.3
2018-Feb-14 23:30N 43°04' E 004°51'611.3
2018-Feb-14 23:00N 43°09' E 004°56'710.3
2018-Feb-14 22:20N 43°15' E 005°00'411.2
2018-Feb-14 22:00N 43°18' E 004°59'5 9.9
2018-Feb-14 21:30N 43°23' E 004°56'3 2.6
2018-Feb-14 20:16N 43°26' E 004°53'0 0.0
2018-Feb-14 20:00N 43°26' E 004°53'0 0.0
2018-Feb-14 19:30N 43°26' E 004°53'0 0.0
2018-Feb-14 19:00N 43°26' E 004°53'0 0.0
2018-Feb-14 18:30N 43°26' E 004°53'0 0.0
2018-Feb-14 18:00N 43°26' E 004°53'0 0.0
2018-Feb-14 17:30N 43°26' E 004°53'0 0.0
2018-Feb-14 17:00N 43°26' E 004°53'0 0.0
2018-Feb-14 16:30N 43°26' E 004°53'0 0.0
2018-Feb-14 16:00N 43°26' E 004°53'0 0.0
2018-Feb-14 15:31N 43°26' E 004°53'0 0.0
2018-Feb-14 15:00N 43°26' E 004°53'0 0.0
2018-Feb-14 14:30N 43°26' E 004°53'0 0.0
2018-Feb-14 14:00N 43°26' E 004°53'0 0.0
2018-Feb-14 13:30N 43°26' E 004°53'0 0.0
2018-Feb-14 13:00N 43°26' E 004°53'0 0.0
2018-Feb-14 12:28N 43°26' E 004°53'0 0.0
2018-Feb-14 12:00N 43°26' E 004°53'0 0.0
2018-Feb-14 11:30N 43°26' E 004°53'0 0.0
2018-Feb-14 11:00N 43°26' E 004°53'0 0.0
2018-Feb-14 10:30N 43°26' E 004°53'0 0.0
2018-Feb-14 10:00N 43°26' E 004°53'0 0.0
2018-Feb-14 09:30N 43°26' E 004°53'0 0.0
2018-Feb-14 09:00N 43°26' E 004°53'0 0.0
2018-Feb-14 08:30N 43°26' E 004°53'0 0.0
2018-Feb-14 08:00N 43°26' E 004°53'0 0.0
2018-Feb-14 07:30N 43°26' E 004°53'0 0.0
2018-Feb-14 07:00N 43°26' E 004°53'0 0.0
2018-Feb-14 06:30N 43°26' E 004°53'0 0.0
2018-Feb-14 06:01N 43°26' E 004°53'0 0.0
2018-Feb-14 05:30N 43°26' E 004°53'0 0.0
2018-Feb-14 05:00N 43°26' E 004°53'0 0.0
2018-Feb-14 04:30N 43°26' E 004°53'0 0.0
2018-Feb-14 04:00N 43°26' E 004°53'0 0.0
2018-Feb-14 03:28N 43°26' E 004°53'0 0.0
2018-Feb-14 03:00N 43°26' E 004°53'0 0.0
2018-Feb-14 02:29N 43°26' E 004°53'0 0.0
2018-Feb-14 02:00N 43°26' E 004°53'0 0.0
2018-Feb-14 01:30N 43°26' E 004°53'0 0.0
2018-Feb-14 01:00N 43°26' E 004°53'0 0.0
2018-Feb-14 00:30N 43°26' E 004°53'0 0.0
2018-Feb-14 00:00N 43°26' E 004°53'0 0.0
2018-Feb-13 23:28N 43°26' E 004°53'0 0.0
2018-Feb-13 23:00N 43°26' E 004°53'0 0.0
2018-Feb-13 22:30N 43°26' E 004°53'0 0.0
2018-Feb-13 22:01N 43°26' E 004°53'0 0.0
2018-Feb-13 21:30N 43°26' E 004°53'0 0.0
2018-Feb-13 20:59N 43°26' E 004°53'0 0.0
2018-Feb-13 20:30N 43°26' E 004°53'1 1.3
2018-Feb-13 20:00N 43°25' E 004°53'4 8.9
2018-Feb-13 19:31N 43°22' E 004°57'5 9.8
2018-Feb-13 19:00N 43°17' E 005°00'510.4
2018-Feb-13 18:30N 43°12' E 005°02'41810.7
2018-Feb-12 03:35N 37°38' W 000°27'111.7
2018-Feb-12 03:30N 37°37' W 000°28'611.7
2018-Feb-12 03:00N 37°32' W 000°32'1111.4
2018-Feb-12 02:01N 37°25' W 000°43'010.9
2018-Feb-12 02:00N 37°25' W 000°43'611.1
2018-Feb-12 01:30N 37°21' W 000°48'611.1
2018-Feb-12 00:59N 37°17' W 000°54'510.9
2018-Feb-12 00:30N 37°14' W 000°59'21811.3
2018-Feb-11 05:12N 35°56' W 005°13'314.2
2018-Feb-11 05:00N 35°56' W 005°16'3 5.8
2018-Feb-11 04:30N 35°54' W 005°19'1 1.1
2018-Feb-11 04:01N 35°54' W 005°19'0 0.0
2018-Feb-11 03:30N 35°54' W 005°19'0 0.0
2018-Feb-11 03:00N 35°54' W 005°19'0 0.0
2018-Feb-11 02:30N 35°54' W 005°19'0 0.0
2018-Feb-11 02:00N 35°54' W 005°19'0 0.0
2018-Feb-11 01:30N 35°54' W 005°19'0 0.0
2018-Feb-11 01:00N 35°54' W 005°19'0 0.9
2018-Feb-11 00:30N 35°54' W 005°19'2 3.2
2018-Feb-11 00:00N 35°55' W 005°18'2 3.9
2018-Feb-10 23:30N 35°56' W 005°16'2 3.2
2018-Feb-10 23:00N 35°57' W 005°18'2 4.0
2018-Feb-10 22:30N 35°58' W 005°20'611.2
2018-Feb-10 22:00N 35°57' W 005°27'  

Dump ship's entire track history